createdAt,value
2019-05-21T00:00:22.959Z,22.30
2019-05-21T00:02:52.841Z,24.97
2019-05-21T00:05:22.945Z,23.23
2019-05-21T00:07:52.525Z,23.23
2019-05-21T00:10:22.064Z,23.57
2019-05-21T00:12:51.621Z,23.57
2019-05-21T00:15:21.182Z,22.63
2019-05-21T00:17:50.954Z,20.40
2019-05-21T00:20:21.383Z,21.80
2019-05-21T00:22:50.981Z,21.83
2019-05-21T00:25:20.543Z,20.37
2019-05-21T00:27:50.105Z,20.23
2019-05-21T00:31:14.391Z,19.77
2019-05-21T00:34:44.039Z,19.30
2019-05-21T00:38:04.998Z,19.80
2019-05-21T00:41:29.489Z,21.63
2019-05-21T00:43:59.850Z,19.23
2019-05-21T00:46:29.401Z,18.57
2019-05-21T00:48:59.048Z,19.13
2019-05-21T00:51:28.595Z,18.83
2019-05-21T00:53:58.193Z,16.47
2019-05-21T00:56:27.743Z,16.23
2019-05-21T00:58:57.551Z,14.77
2019-05-21T01:01:27.121Z,15.23
2019-05-21T01:03:56.746Z,15.00
2019-05-21T01:06:26.351Z,15.20
2019-05-21T01:08:56.562Z,15.17
2019-05-21T01:11:26.074Z,14.40
2019-05-21T01:13:55.626Z,16.87
2019-05-21T01:16:25.712Z,16.37
2019-05-21T01:18:58.066Z,14.43
2019-05-21T01:21:27.733Z,15.37
2019-05-21T01:23:58.087Z,14.27
2019-05-21T01:26:29.913Z,13.47
2019-05-21T01:29:01.888Z,15.73
2019-05-21T01:31:31.585Z,14.87
2019-05-21T01:34:01.213Z,14.83
2019-05-21T01:36:30.912Z,14.90
2019-05-21T01:39:00.497Z,14.57
2019-05-21T01:41:30.352Z,15.77
2019-05-21T01:43:59.963Z,15.20
2019-05-21T01:46:29.550Z,15.60
2019-05-21T01:48:59.123Z,14.57
2019-05-21T01:51:28.749Z,15.27
2019-05-21T01:53:58.540Z,15.00
2019-05-21T01:56:29.116Z,14.90
2019-05-21T01:58:58.958Z,16.20
2019-05-21T02:01:28.522Z,16.13
2019-05-21T02:03:58.185Z,15.57
2019-05-21T02:06:27.731Z,16.00
2019-05-21T02:08:57.682Z,15.13
2019-05-21T02:11:27.221Z,15.80
2019-05-21T02:13:56.803Z,17.50
2019-05-21T02:16:26.406Z,20.00
2019-05-21T02:18:55.948Z,18.80
2019-05-21T02:21:25.556Z,18.17
2019-05-21T02:23:55.368Z,18.73
2019-05-21T02:26:24.945Z,19.97
2019-05-21T02:28:55.680Z,21.93
2019-05-21T02:31:25.242Z,19.80
2019-05-21T02:33:55.263Z,19.73
2019-05-21T02:36:25.127Z,20.77
2019-05-21T02:38:57.144Z,21.10
2019-05-21T02:41:27.329Z,19.67
2019-05-21T02:43:56.885Z,24.47
2019-05-21T02:46:26.866Z,24.60
2019-05-21T02:48:56.726Z,24.73
2019-05-21T02:51:26.773Z,25.50
2019-05-21T02:53:56.895Z,26.77
2019-05-21T02:56:26.543Z,27.10
2019-05-21T02:58:56.114Z,28.20
2019-05-21T03:01:29.775Z,26.53
2019-05-21T03:03:59.471Z,28.40
2019-05-21T03:06:29.239Z,29.40
2019-05-21T03:08:59.026Z,28.37
2019-05-21T03:11:28.666Z,28.43
2019-05-21T03:13:59.020Z,31.07
2019-05-21T03:16:28.971Z,29.53
2019-05-21T03:18:58.868Z,31.33
2019-05-21T03:21:28.431Z,30.00
2019-05-21T03:23:58.028Z,33.80
2019-05-21T03:26:27.559Z,34.90
2019-05-21T03:28:57.410Z,30.63
2019-05-21T03:31:27.322Z,32.17
2019-05-21T03:33:56.904Z,30.20
2019-05-21T03:36:33.442Z,30.57
2019-05-21T03:38:58.006Z,29.60
2019-05-21T03:41:27.569Z,30.77
2019-05-21T03:43:57.357Z,28.87
2019-05-21T03:46:26.994Z,30.97
2019-05-21T03:48:56.709Z,30.07
2019-05-21T03:51:26.249Z,28.47
2019-05-21T03:53:55.811Z,29.40
2019-05-21T03:56:25.454Z,28.63
2019-05-21T03:58:55.177Z,26.07
2019-05-21T04:01:24.732Z,27.30
2019-05-21T04:03:54.288Z,27.33
2019-05-21T04:06:24.048Z,25.90
2019-05-21T04:08:53.599Z,24.40
2019-05-21T04:11:23.570Z,23.80
2019-05-21T04:13:53.113Z,23.17
2019-05-21T04:16:36.714Z,22.80
2019-05-21T04:19:10.758Z,22.20
2019-05-21T04:21:40.684Z,23.90
2019-05-21T04:24:10.239Z,21.87
2019-05-21T04:26:39.849Z,22.50
2019-05-21T04:29:09.858Z,22.63
2019-05-21T04:31:39.431Z,21.27
2019-05-21T04:34:09.092Z,20.93
2019-05-21T04:36:38.680Z,20.97
2019-05-21T04:39:08.580Z,19.20
2019-05-21T04:41:38.128Z,18.80
2019-05-21T04:44:08.245Z,17.80
2019-05-21T04:46:37.821Z,17.87
2019-05-21T04:49:07.552Z,17.63
2019-05-21T04:51:37.101Z,16.93
2019-05-21T04:54:06.958Z,18.77
2019-05-21T04:56:36.539Z,17.50
2019-05-21T04:59:06.350Z,18.30
2019-05-21T05:01:36.042Z,19.70
2019-05-21T05:04:05.971Z,19.83
2019-05-21T05:06:35.888Z,18.33
2019-05-21T05:09:07.475Z,17.23
2019-05-21T05:11:37.068Z,18.33
2019-05-21T05:14:07.024Z,18.63
2019-05-21T05:16:36.772Z,18.13
2019-05-21T05:19:06.382Z,19.60
2019-05-21T05:21:36.113Z,18.57
2019-05-21T05:24:05.780Z,16.93
2019-05-21T05:26:35.314Z,16.67
2019-05-21T05:29:04.988Z,16.87
2019-05-21T05:31:34.645Z,16.93
2019-05-21T05:34:04.272Z,17.67
2019-05-21T05:36:33.810Z,16.40
2019-05-21T05:39:04.924Z,18.13
2019-05-21T05:41:34.507Z,16.07
2019-05-21T05:44:04.302Z,17.33
2019-05-21T05:46:33.897Z,16.87
2019-05-21T05:49:05.125Z,16.40
2019-05-21T05:51:34.858Z,17.23
2019-05-21T05:54:07.548Z,17.43
2019-05-21T05:56:36.173Z,16.53
2019-05-21T05:59:06.136Z,18.10
2019-05-21T06:01:35.871Z,16.57
2019-05-21T06:04:05.616Z,16.13
2019-05-21T06:06:35.183Z,15.60
2019-05-21T06:09:05.611Z,14.77
2019-05-21T06:11:35.316Z,15.13
2019-05-21T06:14:04.982Z,16.40
2019-05-21T06:16:34.738Z,15.40
2019-05-21T06:19:04.593Z,15.77
2019-05-21T06:21:34.681Z,14.37
2019-05-21T06:24:04.457Z,14.47
2019-05-21T06:26:34.356Z,14.13
2019-05-21T06:29:03.950Z,14.37
2019-05-21T06:31:33.520Z,14.50
2019-05-21T06:34:03.077Z,13.97
2019-05-21T06:36:33.143Z,14.70
2019-05-21T06:39:03.235Z,12.40
2019-05-21T06:41:32.840Z,12.87
2019-05-21T06:44:03.477Z,12.23
2019-05-21T06:46:33.252Z,12.43
2019-05-21T06:49:02.799Z,12.87
2019-05-21T06:51:32.707Z,12.37
2019-05-21T06:54:02.781Z,11.73
2019-05-21T06:56:32.735Z,12.07
2019-05-21T06:59:02.386Z,12.30
2019-05-21T07:01:32.137Z,11.80
2019-05-21T07:04:01.767Z,12.57
2019-05-21T07:06:31.479Z,12.97
2019-05-21T07:09:01.226Z,13.57
2019-05-21T07:11:30.895Z,12.43
2019-05-21T07:14:01.534Z,12.43
2019-05-21T07:16:31.125Z,11.97
2019-05-21T07:19:00.828Z,11.97
2019-05-21T07:21:30.592Z,12.13
2019-05-21T07:24:00.442Z,11.67
2019-05-21T07:26:29.970Z,13.10
2019-05-21T07:28:59.547Z,13.73
2019-05-21T07:31:29.991Z,13.83
2019-05-21T07:33:59.843Z,14.17
2019-05-21T07:36:31.745Z,14.87
2019-05-21T07:39:01.409Z,12.73
2019-05-21T07:41:30.971Z,13.83
2019-05-21T07:44:00.552Z,13.87
2019-05-21T07:46:32.330Z,13.97
2019-05-21T07:49:01.962Z,13.83
2019-05-21T07:51:31.815Z,14.07
2019-05-21T07:54:01.454Z,15.27
2019-05-21T07:56:31.181Z,14.27
2019-05-21T07:59:01.392Z,14.23
2019-05-21T08:01:31.507Z,14.57
2019-05-21T08:04:01.310Z,13.77
2019-05-21T08:06:30.906Z,13.87
2019-05-21T08:09:12.384Z,13.93
2019-05-21T08:11:31.860Z,15.00
2019-05-21T08:14:01.443Z,14.20
2019-05-21T08:16:31.008Z,13.90
2019-05-21T08:19:00.547Z,12.33
2019-05-21T08:21:30.110Z,13.77
2019-05-21T08:23:59.652Z,13.27
2019-05-21T08:26:29.219Z,13.83
2019-05-21T08:28:59.120Z,11.70
2019-05-21T08:31:29.195Z,11.43
2019-05-21T08:33:58.819Z,12.87
2019-05-21T08:36:28.984Z,10.53
2019-05-21T08:38:58.979Z,10.43
2019-05-21T08:41:29.163Z,11.10
2019-05-21T08:43:58.935Z,10.40
2019-05-21T08:46:28.728Z,11.00
2019-05-21T08:48:58.382Z,12.27
2019-05-21T08:51:28.287Z,10.17
2019-05-21T08:53:57.858Z,12.57
2019-05-21T08:56:28.381Z,12.20
2019-05-21T08:58:58.325Z,11.67
2019-05-21T09:01:28.403Z,12.20
2019-05-21T09:03:58.503Z,10.70
2019-05-21T09:06:28.168Z,10.90
2019-05-21T09:08:57.736Z,10.60
2019-05-21T09:11:27.346Z,11.70
2019-05-21T09:13:57.279Z,11.20
2019-05-21T09:16:27.582Z,11.53
2019-05-21T09:18:58.385Z,12.70
2019-05-21T09:21:28.490Z,12.13
2019-05-21T09:23:58.394Z,11.93
2019-05-21T09:26:28.160Z,12.60
2019-05-21T09:28:57.987Z,13.47
2019-05-21T09:31:27.556Z,13.87
2019-05-21T09:33:57.373Z,13.20
2019-05-21T09:36:28.409Z,12.60
2019-05-21T09:38:58.030Z,12.73
2019-05-21T09:41:28.590Z,12.17
2019-05-21T09:43:58.243Z,12.20
2019-05-21T09:46:27.806Z,11.13
2019-05-21T09:48:57.732Z,12.13
2019-05-21T09:51:27.395Z,11.07
2019-05-21T09:53:57.302Z,11.13
2019-05-21T09:56:32.811Z,11.13
2019-05-21T09:59:11.873Z,10.60
2019-05-21T10:01:47.430Z,11.00
2019-05-21T10:04:16.014Z,10.97
2019-05-21T10:06:49.175Z,10.47
2019-05-21T10:09:20.459Z,10.80
2019-05-21T10:11:50.010Z,11.60
2019-05-21T10:14:19.791Z,11.33
2019-05-21T10:16:49.367Z,10.40
2019-05-21T10:19:18.988Z,12.23
2019-05-21T10:21:48.804Z,11.93
2019-05-21T10:24:18.380Z,13.17
2019-05-21T10:26:47.920Z,14.40
2019-05-21T10:29:19.644Z,13.23
2019-05-21T10:31:49.492Z,13.43
2019-05-21T10:34:19.798Z,13.97
2019-05-21T10:36:49.394Z,13.30
2019-05-21T10:39:19.647Z,14.90
2019-05-21T10:41:50.082Z,13.63
2019-05-21T10:44:19.782Z,13.57
2019-05-21T10:46:49.900Z,12.30
2019-05-21T10:49:19.548Z,13.63
2019-05-21T10:51:49.120Z,12.83
2019-05-21T10:54:18.719Z,14.90
2019-05-21T10:56:48.724Z,13.67
2019-05-21T10:59:18.374Z,12.57
2019-05-21T11:01:49.792Z,15.00
2019-05-21T11:04:22.288Z,14.67
2019-05-21T11:06:52.073Z,13.30
2019-05-21T11:09:23.003Z,15.20
2019-05-21T11:11:52.944Z,15.57
2019-05-21T11:14:22.421Z,13.93
2019-05-21T11:16:52.702Z,14.67
2019-05-21T11:19:23.171Z,15.63
2019-05-21T11:21:53.076Z,14.13
2019-05-21T11:24:22.702Z,14.43
2019-05-21T11:26:52.285Z,15.50
2019-05-21T11:29:22.150Z,16.67
2019-05-21T11:31:57.008Z,16.20
2019-05-21T11:34:23.335Z,16.23
2019-05-21T11:36:53.291Z,16.20
2019-05-21T11:39:23.121Z,14.80
2019-05-21T11:41:52.676Z,16.63
2019-05-21T11:44:22.384Z,15.37
2019-05-21T11:46:52.717Z,15.63
2019-05-21T11:49:22.260Z,16.27
2019-05-21T11:51:51.896Z,14.43
2019-05-21T11:54:21.526Z,15.33
2019-05-21T11:56:51.255Z,15.63
2019-05-21T11:59:21.767Z,14.93
2019-05-21T12:01:51.520Z,16.43
2019-05-21T12:04:21.938Z,16.30
2019-05-21T12:06:52.098Z,15.73
2019-05-21T12:09:21.787Z,17.43
2019-05-21T12:11:53.354Z,16.27
2019-05-21T12:14:23.681Z,16.47
2019-05-21T12:16:53.763Z,16.90
2019-05-21T12:19:23.522Z,16.80
2019-05-21T12:21:53.218Z,16.20
2019-05-21T12:24:22.763Z,16.77
2019-05-21T12:26:52.369Z,16.10
2019-05-21T12:29:22.134Z,17.33
2019-05-21T12:31:51.986Z,16.27
2019-05-21T12:34:21.945Z,17.10
2019-05-21T12:36:51.545Z,16.27
2019-05-21T12:39:21.133Z,16.87
2019-05-21T12:41:51.380Z,17.87
2019-05-21T12:44:20.982Z,18.23
2019-05-21T12:46:50.539Z,18.00
2019-05-21T12:49:20.458Z,16.63
2019-05-21T12:51:50.201Z,17.03
2019-05-21T12:54:19.715Z,17.17
2019-05-21T12:56:49.565Z,16.50
2019-05-21T12:59:19.340Z,19.00
2019-05-21T13:01:48.986Z,16.30
2019-05-21T13:04:18.666Z,17.47
2019-05-21T13:06:48.464Z,17.50
2019-05-21T13:09:31.278Z,16.70
2019-05-21T13:11:49.533Z,16.30
2019-05-21T13:14:19.244Z,18.83
2019-05-21T13:16:49.398Z,17.37
2019-05-21T13:19:19.137Z,18.03
2019-05-21T13:21:48.851Z,18.90
2019-05-21T13:24:18.436Z,17.33
2019-05-21T13:26:47.970Z,17.53
2019-05-21T13:29:17.950Z,18.77
2019-05-21T13:31:48.142Z,17.23
2019-05-21T13:34:17.754Z,17.23
2019-05-21T13:36:47.388Z,16.63
2019-05-21T13:39:17.375Z,16.70
2019-05-21T13:41:48.387Z,16.57
2019-05-21T13:44:18.109Z,16.60
2019-05-21T13:46:47.656Z,17.43
2019-05-21T13:49:17.349Z,16.87
2019-05-21T13:51:47.184Z,16.60
2019-05-21T13:54:18.615Z,15.47
2019-05-21T13:56:48.898Z,15.67
2019-05-21T13:59:19.539Z,14.83
2019-05-21T14:01:49.210Z,15.30
2019-05-21T14:04:19.432Z,15.30
2019-05-21T14:06:49.028Z,15.60
2019-05-21T14:09:19.017Z,16.87
2019-05-21T14:11:49.615Z,17.17
2019-05-21T14:14:19.358Z,15.00
2019-05-21T14:16:49.159Z,16.50
2019-05-21T14:19:19.034Z,15.40
2019-05-21T14:21:49.770Z,15.63
2019-05-21T14:24:19.945Z,15.87
2019-05-21T14:26:49.735Z,15.57
2019-05-21T14:29:19.495Z,16.40
2019-05-21T14:31:49.326Z,14.80
2019-05-21T14:34:19.442Z,15.07
2019-05-21T14:36:49.469Z,14.97
2019-05-21T14:39:19.348Z,16.10
2019-05-21T14:41:48.970Z,16.67
2019-05-21T14:44:18.682Z,15.47
2019-05-21T14:46:48.292Z,16.47
2019-05-21T14:49:18.037Z,16.17
2019-05-21T14:51:47.609Z,15.90
2019-05-21T14:54:26.734Z,14.33
2019-05-21T14:56:48.898Z,14.90
2019-05-21T14:59:18.467Z,15.33
2019-05-21T15:01:48.035Z,17.20
2019-05-21T15:04:18.001Z,15.27
2019-05-21T15:06:48.125Z,17.87
2019-05-21T15:09:18.027Z,18.03
2019-05-21T15:11:47.652Z,17.83
2019-05-21T15:14:17.295Z,18.80
2019-05-21T15:16:47.383Z,18.57
2019-05-21T15:19:17.047Z,20.23
2019-05-21T15:21:48.774Z,19.63
2019-05-21T15:24:18.385Z,22.53
2019-05-21T15:26:48.028Z,23.70
2019-05-21T15:29:17.683Z,22.10
2019-05-21T15:31:47.268Z,24.20
2019-05-21T15:34:16.858Z,24.53
2019-05-21T15:36:46.474Z,23.10
2019-05-21T15:39:16.645Z,23.53
2019-05-21T15:41:46.323Z,21.37
2019-05-21T15:44:15.961Z,21.63
2019-05-21T15:46:50.047Z,20.77
2019-05-21T15:49:17.203Z,20.63
2019-05-21T15:51:46.995Z,20.67
2019-05-21T15:54:16.628Z,19.53
2019-05-21T15:56:46.788Z,20.93
2019-05-21T15:59:16.388Z,18.93
2019-05-21T16:01:45.963Z,17.70
2019-05-21T16:04:16.815Z,17.53
2019-05-21T16:06:46.713Z,18.03
2019-05-21T16:09:16.510Z,17.07
2019-05-21T16:11:46.423Z,17.23
2019-05-21T16:14:15.973Z,17.57
2019-05-21T16:16:45.655Z,17.60
2019-05-21T16:19:15.189Z,17.47
2019-05-21T16:21:45.059Z,18.17
2019-05-21T16:24:14.659Z,17.93
2019-05-21T16:26:44.222Z,17.87
2019-05-21T16:29:13.869Z,18.40
2019-05-21T16:31:43.525Z,17.23
2019-05-21T16:34:13.147Z,18.20
2019-05-21T16:36:43.198Z,16.47
2019-05-21T16:39:13.734Z,18.03
2019-05-21T16:41:45.168Z,15.53
2019-05-21T16:44:15.012Z,16.87
2019-05-21T16:46:44.926Z,17.57
2019-05-21T16:49:14.726Z,16.23
2019-05-21T16:51:44.301Z,17.03
2019-05-21T16:54:13.932Z,16.43
2019-05-21T16:56:43.526Z,15.97
2019-05-21T16:59:13.153Z,16.63
2019-05-21T17:01:43.081Z,16.10
2019-05-21T17:04:12.712Z,16.00
2019-05-21T17:06:42.642Z,14.93
2019-05-21T17:09:14.062Z,15.77
2019-05-21T17:11:57.558Z,15.63
2019-05-21T17:14:15.056Z,15.50
2019-05-21T17:16:44.621Z,14.73
2019-05-21T17:19:14.476Z,13.10
2019-05-21T17:21:44.274Z,14.17
2019-05-21T17:24:14.021Z,13.63
2019-05-21T17:26:43.783Z,16.37
2019-05-21T17:29:13.396Z,15.33
2019-05-21T17:31:43.042Z,14.20
2019-05-21T17:34:12.740Z,14.33
2019-05-21T17:36:42.399Z,14.57
2019-05-21T17:39:12.045Z,14.43
2019-05-21T17:41:41.586Z,15.03
2019-05-21T17:44:11.495Z,13.43
2019-05-21T17:46:41.045Z,15.20
2019-05-21T17:49:10.606Z,14.47
2019-05-21T17:51:40.330Z,13.60
2019-05-21T17:54:09.965Z,15.10
2019-05-21T17:56:39.965Z,14.63
2019-05-21T17:59:10.783Z,14.90
2019-05-21T18:01:42.925Z,14.80
2019-05-21T18:04:14.139Z,14.70
2019-05-21T18:06:43.706Z,14.60
2019-05-21T18:09:15.410Z,15.20
2019-05-21T18:11:45.975Z,14.43
2019-05-21T18:14:16.122Z,14.97
2019-05-21T18:16:45.739Z,14.27
2019-05-21T18:19:16.102Z,13.03
2019-05-21T18:21:45.990Z,12.60
2019-05-21T18:24:15.590Z,11.83
2019-05-21T18:26:45.140Z,12.83
2019-05-21T18:29:14.702Z,11.90
2019-05-21T18:31:46.066Z,12.37
2019-05-21T18:34:16.157Z,13.53
2019-05-21T18:36:45.788Z,12.77
2019-05-21T18:39:17.207Z,14.03
2019-05-21T18:41:47.983Z,12.57
2019-05-21T18:44:19.308Z,12.27
2019-05-21T18:46:50.380Z,12.43
2019-05-21T18:49:22.150Z,12.63
2019-05-21T18:51:53.836Z,12.03
2019-05-21T18:54:23.500Z,11.47
2019-05-21T18:56:54.746Z,12.60
2019-05-21T18:59:26.767Z,13.27
2019-05-21T19:01:58.038Z,14.33
2019-05-21T19:04:38.588Z,13.77
2019-05-21T19:07:10.841Z,13.50
2019-05-21T19:09:42.033Z,12.67
2019-05-21T19:12:12.949Z,14.10
2019-05-21T19:14:45.400Z,13.20
2019-05-21T19:17:15.592Z,13.00
2019-05-21T19:19:46.822Z,12.40
2019-05-21T19:22:17.814Z,14.30
2019-05-21T19:24:48.873Z,12.33
2019-05-21T19:27:20.661Z,13.20
2019-05-21T19:29:51.525Z,12.73
2019-05-21T19:32:22.589Z,12.53
2019-05-21T19:34:53.639Z,12.47
2019-05-21T19:37:33.115Z,12.10
2019-05-21T19:40:03.722Z,12.23
2019-05-21T19:42:35.627Z,12.33
2019-05-21T19:45:09.660Z,11.60
2019-05-21T19:47:40.643Z,13.33
2019-05-21T19:50:12.118Z,12.40
2019-05-21T19:52:43.835Z,14.93
2019-05-21T19:55:16.325Z,16.27
2019-05-21T19:57:47.699Z,16.97
2019-05-21T20:00:24.344Z,15.83
2019-05-21T20:02:55.488Z,15.60
2019-05-21T20:05:28.384Z,16.53
2019-05-21T20:07:59.655Z,17.10
2019-05-21T20:10:33.976Z,15.80
2019-05-21T20:13:04.460Z,17.97
2019-05-21T20:15:35.649Z,16.60
2019-05-21T20:18:07.883Z,15.83
2019-05-21T20:20:39.505Z,16.80
2019-05-21T20:23:11.566Z,15.77
2019-05-21T20:25:55.406Z,17.37
2019-05-21T20:28:17.960Z,16.93
2019-05-21T20:30:49.474Z,15.97
2019-05-21T20:33:20.973Z,16.97
2019-05-21T20:35:53.808Z,16.40
2019-05-21T20:38:26.317Z,15.60
2019-05-21T20:40:58.005Z,17.10
2019-05-21T20:43:28.982Z,17.27
2019-05-21T20:46:00.918Z,17.50
2019-05-21T20:48:33.401Z,17.20
2019-05-21T20:51:04.434Z,16.03
2019-05-21T20:53:36.403Z,16.83
2019-05-21T20:56:08.703Z,17.40
2019-05-21T20:58:40.323Z,16.33
2019-05-21T21:01:11.091Z,17.10
2019-05-21T21:03:43.246Z,17.40
2019-05-21T21:06:15.118Z,14.97
2019-05-21T21:08:45.684Z,14.83
2019-05-21T21:11:17.742Z,14.50
2019-05-21T21:13:49.197Z,13.70
2019-05-21T21:16:20.746Z,13.67
2019-05-21T21:18:51.818Z,13.43
2019-05-21T21:21:23.952Z,13.27
2019-05-21T21:23:56.835Z,12.93
2019-05-21T21:26:28.864Z,11.70
2019-05-21T21:29:01.114Z,12.43
2019-05-21T21:31:31.090Z,12.00
2019-05-21T21:34:02.440Z,13.83
2019-05-21T21:36:35.308Z,13.73
2019-05-21T21:39:08.984Z,13.10
2019-05-21T21:41:41.252Z,15.10
2019-05-21T21:44:11.201Z,15.33
2019-05-21T21:46:40.779Z,14.83
2019-05-21T21:49:10.687Z,15.73
2019-05-21T21:51:40.916Z,15.37
2019-05-21T21:54:11.480Z,15.03
2019-05-21T21:56:41.109Z,16.67
2019-05-21T21:59:11.781Z,18.53
2019-05-21T22:01:49.606Z,18.30
2019-05-21T22:04:24.240Z,19.17
2019-05-21T22:06:54.824Z,19.30
2019-05-21T22:09:29.459Z,19.33
2019-05-21T22:12:00.263Z,20.20
2019-05-21T22:14:30.454Z,18.40
2019-05-21T22:17:01.096Z,21.63
2019-05-21T22:19:31.847Z,23.83
2019-05-21T22:22:01.578Z,23.60
2019-05-21T22:24:31.346Z,23.43
2019-05-21T22:27:00.972Z,22.63
2019-05-21T22:29:30.717Z,21.93
2019-05-21T22:32:00.319Z,20.73
2019-05-21T22:34:30.227Z,21.03
2019-05-21T22:36:59.865Z,23.47
2019-05-21T22:39:30.934Z,23.70
2019-05-21T22:42:00.511Z,25.03
2019-05-21T22:44:30.066Z,26.60
2019-05-21T22:46:59.957Z,25.77
2019-05-21T22:49:33.638Z,26.67
2019-05-21T22:52:01.113Z,26.77
2019-05-21T22:54:30.811Z,27.30
2019-05-21T22:57:00.394Z,25.17
2019-05-21T22:59:30.029Z,23.67
2019-05-21T23:02:01.581Z,24.97
2019-05-21T23:04:31.405Z,27.37
2019-05-21T23:07:01.365Z,26.30
2019-05-21T23:09:33.090Z,26.27
2019-05-21T23:12:03.158Z,25.97
2019-05-21T23:14:32.757Z,26.67
2019-05-21T23:17:02.478Z,27.07
2019-05-21T23:19:32.025Z,25.73
2019-05-21T23:22:01.861Z,26.63
2019-05-21T23:24:32.672Z,26.10
2019-05-21T23:27:02.229Z,26.93
2019-05-21T23:29:32.235Z,23.63
2019-05-21T23:32:01.834Z,22.73
2019-05-21T23:34:31.772Z,23.13
2019-05-21T23:37:02.471Z,24.30
2019-05-21T23:39:34.339Z,22.27
2019-05-21T23:42:05.868Z,24.53
2019-05-21T23:44:35.576Z,23.07
2019-05-21T23:47:06.877Z,23.20
2019-05-21T23:49:36.605Z,23.20
2019-05-21T23:52:07.164Z,21.73
2019-05-21T23:54:36.742Z,22.50
2019-05-21T23:57:07.603Z,22.50
2019-05-21T23:59:37.508Z,20.60
